createdAt,value
2017-05-24T00:02:12.251Z,42.50
2017-05-24T00:04:41.182Z,42.60
2017-05-24T00:07:10.104Z,42.90
2017-05-24T00:09:39.022Z,43.00
2017-05-24T00:12:08.175Z,43.00
2017-05-24T00:14:37.084Z,42.90
2017-05-24T00:17:06.009Z,42.80
2017-05-24T00:19:34.947Z,43.10
2017-05-24T00:22:03.946Z,42.60
2017-05-24T00:24:32.858Z,43.00
2017-05-24T00:27:01.779Z,43.40
2017-05-24T00:29:30.682Z,42.90
2017-05-24T00:31:59.711Z,43.00
2017-05-24T00:34:28.692Z,43.00
2017-05-24T00:36:57.674Z,42.90
2017-05-24T00:39:26.599Z,43.30
2017-05-24T00:41:55.511Z,43.10
2017-05-24T00:44:24.408Z,43.00
2017-05-24T00:46:53.367Z,43.00
2017-05-24T00:49:22.278Z,42.90
2017-05-24T00:51:51.195Z,43.30
2017-05-24T00:54:20.099Z,43.10
2017-05-24T00:56:49.110Z,43.20
2017-05-24T00:59:18.051Z,43.00
2017-05-24T01:01:46.957Z,43.30
2017-05-24T01:04:15.875Z,43.20
2017-05-24T01:06:44.891Z,43.30
2017-05-24T01:09:13.823Z,43.20
2017-05-24T01:11:42.767Z,42.90
2017-05-24T01:14:11.689Z,43.20
2017-05-24T01:16:40.610Z,43.40
2017-05-24T01:19:09.527Z,43.80
2017-05-24T01:21:38.462Z,43.90
2017-05-24T01:24:07.373Z,43.80
2017-05-24T01:26:36.282Z,44.10
2017-05-24T01:29:05.189Z,44.10
2017-05-24T01:31:34.087Z,44.30
2017-05-24T01:34:03.036Z,44.10
2017-05-24T01:36:32.003Z,44.20
2017-05-24T01:39:00.926Z,44.00
2017-05-24T01:41:29.834Z,44.20
2017-05-24T01:43:58.744Z,44.30
2017-05-24T01:46:27.645Z,44.60
2017-05-24T01:48:56.566Z,44.90
2017-05-24T01:51:25.478Z,44.80
2017-05-24T01:53:54.395Z,45.00
2017-05-24T01:56:23.338Z,45.40
2017-05-24T01:58:52.255Z,45.40
2017-05-24T02:01:21.158Z,45.40
2017-05-24T02:03:50.145Z,45.40
2017-05-24T02:06:19.051Z,45.60
2017-05-24T02:08:47.963Z,45.60
2017-05-24T02:11:16.883Z,45.60
2017-05-24T02:13:45.800Z,45.70
2017-05-24T02:16:14.713Z,45.50
2017-05-24T02:18:43.615Z,45.90
2017-05-24T02:21:12.540Z,46.10
2017-05-24T02:23:41.450Z,46.00
2017-05-24T02:26:10.347Z,46.40
2017-05-24T02:28:39.271Z,46.40
2017-05-24T02:31:08.187Z,46.60
2017-05-24T02:33:37.096Z,46.80
2017-05-24T02:36:06.035Z,46.60
2017-05-24T02:38:34.925Z,46.90
2017-05-24T02:41:11.529Z,46.70
2017-05-24T02:43:40.439Z,46.80
2017-05-24T02:46:09.343Z,47.00
2017-05-24T02:48:38.274Z,47.10
2017-05-24T02:51:07.199Z,47.20
2017-05-24T02:53:36.098Z,47.40
2017-05-24T02:56:05.037Z,47.40
2017-05-24T02:58:33.985Z,47.20
2017-05-24T03:01:02.926Z,46.90
2017-05-24T03:03:31.919Z,46.40
2017-05-24T03:06:00.933Z,46.80
2017-05-24T03:08:30.011Z,47.00
2017-05-24T03:10:58.914Z,46.70
2017-05-24T03:13:27.819Z,46.10
2017-05-24T03:15:56.781Z,46.80
2017-05-24T03:18:25.668Z,47.10
2017-05-24T03:20:54.611Z,47.00
2017-05-24T03:23:23.518Z,46.90
2017-05-24T03:25:52.834Z,46.60
2017-05-24T03:28:21.753Z,46.70
2017-05-24T03:30:50.666Z,46.60
2017-05-24T03:33:19.566Z,46.60
2017-05-24T03:35:48.530Z,46.70
2017-05-24T03:38:17.464Z,47.40
2017-05-24T03:40:46.482Z,47.10
2017-05-24T03:43:15.571Z,47.00
2017-05-24T03:45:44.480Z,47.10
2017-05-24T03:48:13.375Z,46.70
2017-05-24T03:50:41.560Z,46.60
2017-05-24T03:53:10.459Z,47.20
2017-05-24T03:55:39.368Z,47.20
2017-05-24T03:58:08.561Z,46.70
2017-05-24T04:00:37.467Z,46.70
2017-05-24T04:03:06.391Z,47.00
2017-05-24T04:05:35.311Z,47.30
2017-05-24T04:08:04.362Z,46.80
2017-05-24T04:10:33.465Z,47.40
2017-05-24T04:13:02.447Z,46.90
2017-05-24T04:15:31.330Z,47.60
2017-05-24T04:18:00.261Z,46.70
2017-05-24T04:20:29.183Z,47.00
2017-05-24T04:22:58.083Z,46.50
2017-05-24T04:25:27.063Z,47.10
2017-05-24T04:27:55.965Z,46.90
2017-05-24T04:30:24.910Z,47.00
2017-05-24T04:32:53.887Z,47.20
2017-05-24T04:35:22.782Z,47.30
2017-05-24T04:37:51.723Z,47.60
2017-05-24T04:40:20.641Z,48.00
2017-05-24T04:42:49.552Z,48.10
2017-05-24T04:45:18.471Z,48.30
2017-05-24T04:47:47.371Z,48.50
2017-05-24T04:50:16.482Z,48.40
2017-05-24T04:52:45.402Z,48.80
2017-05-24T04:55:14.314Z,49.20
2017-05-24T04:57:43.259Z,49.40
2017-05-24T05:00:12.174Z,49.70
2017-05-24T05:02:41.088Z,50.00
2017-05-24T05:05:10.018Z,49.90
2017-05-24T05:07:38.918Z,49.60
2017-05-24T05:10:07.837Z,49.40
2017-05-24T05:12:36.761Z,49.60
2017-05-24T05:15:05.674Z,49.80
2017-05-24T05:17:34.601Z,50.20
2017-05-24T05:20:03.514Z,50.50
2017-05-24T05:22:32.439Z,50.80
2017-05-24T05:25:01.364Z,51.10
2017-05-24T05:27:30.310Z,51.50
2017-05-24T05:29:59.223Z,51.10
2017-05-24T05:32:28.143Z,50.80
2017-05-24T05:34:57.066Z,50.20
2017-05-24T05:37:25.970Z,51.00
2017-05-24T05:39:54.915Z,50.60
2017-05-24T05:42:23.822Z,50.00
2017-05-24T05:44:52.847Z,49.20
2017-05-24T05:47:21.776Z,48.80
2017-05-24T05:49:50.678Z,48.20
2017-05-24T05:52:19.599Z,46.90
2017-05-24T05:54:48.510Z,47.60
2017-05-24T05:57:17.430Z,47.60
2017-05-24T05:59:46.355Z,47.50
2017-05-24T06:02:15.273Z,47.20
2017-05-24T06:04:44.211Z,47.20
2017-05-24T06:07:13.109Z,46.70
2017-05-24T06:09:42.018Z,46.80
2017-05-24T06:12:10.946Z,46.50
2017-05-24T06:14:39.884Z,46.30
2017-05-24T06:17:08.788Z,46.60
2017-05-24T06:19:38.023Z,46.20
2017-05-24T06:22:06.930Z,45.30
2017-05-24T06:24:35.874Z,45.00
2017-05-24T06:27:05.269Z,44.10
2017-05-24T06:29:34.838Z,43.70
2017-05-24T06:32:03.923Z,43.80
2017-05-24T06:34:32.832Z,43.80
2017-05-24T06:37:01.734Z,44.00
2017-05-24T06:39:30.675Z,43.70
2017-05-24T06:41:59.586Z,43.60
2017-05-24T06:44:28.501Z,43.50
2017-05-24T06:46:57.429Z,43.50
2017-05-24T06:49:26.346Z,43.60
2017-05-24T06:51:55.270Z,44.00
2017-05-24T06:54:24.294Z,44.00
2017-05-24T06:56:53.283Z,43.80
2017-05-24T06:59:22.174Z,44.30
2017-05-24T07:01:51.165Z,44.80
2017-05-24T07:04:20.077Z,44.60
2017-05-24T07:06:48.986Z,44.90
2017-05-24T07:09:17.907Z,45.10
2017-05-24T07:11:46.817Z,46.10
2017-05-24T07:14:15.894Z,46.00
2017-05-24T07:16:44.795Z,46.20
2017-05-24T07:19:13.702Z,46.70
2017-05-24T07:21:42.638Z,47.30
2017-05-24T07:24:11.559Z,47.90
2017-05-24T07:26:40.495Z,47.60
2017-05-24T07:29:09.424Z,46.70
2017-05-24T07:31:38.374Z,47.00
2017-05-24T07:34:07.279Z,45.70
2017-05-24T07:36:36.211Z,44.90
2017-05-24T07:39:05.144Z,44.50
2017-05-24T07:41:34.062Z,44.30
2017-05-24T07:44:03.003Z,43.80
2017-05-24T07:46:31.913Z,43.50
2017-05-24T07:49:00.853Z,42.80
2017-05-24T07:51:29.846Z,42.60
2017-05-24T07:53:58.769Z,41.90
2017-05-24T07:56:27.692Z,41.90
2017-05-24T07:58:56.603Z,41.40
2017-05-24T08:01:25.531Z,41.20
2017-05-24T08:03:54.442Z,42.80
2017-05-24T08:06:23.498Z,45.40
2017-05-24T08:08:52.426Z,45.20
2017-05-24T08:11:21.329Z,45.30
2017-05-24T08:13:50.238Z,45.70
2017-05-24T08:16:19.167Z,46.70
2017-05-24T08:18:48.096Z,46.30
2017-05-24T08:21:17.046Z,44.70
2017-05-24T08:23:46.065Z,45.40
2017-05-24T08:26:14.986Z,47.30
2017-05-24T08:28:43.916Z,46.10
2017-05-24T08:31:12.862Z,45.00
2017-05-24T08:33:42.630Z,44.30
2017-05-24T08:36:11.579Z,44.00
2017-05-24T08:38:40.481Z,43.60
2017-05-24T08:41:09.385Z,43.60
2017-05-24T08:43:38.466Z,43.40
2017-05-24T08:46:07.427Z,43.60
2017-05-24T08:48:36.941Z,42.50
2017-05-24T08:51:05.923Z,39.40
2017-05-24T08:53:34.838Z,39.90
2017-05-24T08:56:03.756Z,39.40
2017-05-24T08:58:32.879Z,39.00
2017-05-24T09:01:01.786Z,38.10
2017-05-24T09:03:30.709Z,37.20
2017-05-24T09:05:59.657Z,36.60
2017-05-24T09:08:28.711Z,36.90
2017-05-24T09:10:57.605Z,38.30
2017-05-24T09:13:26.529Z,38.70
2017-05-24T09:15:55.454Z,39.00
2017-05-24T09:18:24.391Z,39.20
2017-05-24T09:20:53.300Z,39.40
2017-05-24T09:23:22.213Z,40.20
2017-05-24T09:25:51.152Z,41.20
2017-05-24T09:28:20.067Z,40.90
2017-05-24T09:30:48.986Z,39.30
2017-05-24T09:33:17.957Z,38.80
2017-05-24T09:35:46.898Z,37.60
2017-05-24T09:38:15.942Z,36.40
2017-05-24T09:40:44.846Z,36.60
2017-05-24T09:43:13.758Z,35.70
2017-05-24T09:45:42.691Z,33.70
2017-05-24T09:48:11.717Z,32.90
2017-05-24T09:50:40.614Z,32.00
2017-05-24T09:53:09.619Z,31.80
2017-05-24T09:55:38.545Z,32.40
2017-05-24T09:58:07.463Z,32.60
2017-05-24T10:00:36.426Z,32.50
2017-05-24T10:03:05.366Z,31.90
2017-05-24T10:05:34.271Z,33.20
2017-05-24T10:08:03.297Z,34.30
2017-05-24T10:10:32.249Z,35.40
2017-05-24T10:13:01.168Z,35.70
2017-05-24T10:15:30.096Z,36.10
2017-05-24T10:17:59.039Z,37.40
2017-05-24T10:20:27.959Z,36.30
2017-05-24T10:22:56.903Z,37.50
2017-05-24T10:25:25.826Z,38.20
2017-05-24T10:27:54.729Z,39.20
2017-05-24T10:30:23.668Z,40.40
2017-05-24T10:32:52.577Z,41.20
2017-05-24T10:35:21.485Z,39.50
2017-05-24T10:37:50.413Z,40.50
2017-05-24T10:40:24.950Z,41.40
2017-05-24T10:42:53.898Z,41.70
2017-05-24T10:45:22.832Z,43.10
2017-05-24T10:47:51.775Z,43.30
2017-05-24T10:50:20.698Z,43.10
2017-05-24T10:52:49.618Z,42.50
2017-05-24T10:55:18.553Z,41.70
2017-05-24T10:57:47.461Z,41.60
2017-05-24T11:00:16.525Z,41.60
2017-05-24T11:02:45.466Z,41.90
2017-05-24T11:05:14.374Z,41.70
2017-05-24T11:07:43.358Z,40.80
2017-05-24T11:10:12.303Z,41.80
2017-05-24T11:12:41.212Z,41.90
2017-05-24T11:15:10.162Z,42.10
2017-05-24T11:17:39.094Z,44.00
2017-05-24T11:20:07.995Z,43.60
2017-05-24T11:22:36.944Z,42.80
2017-05-24T11:25:05.882Z,44.60
2017-05-24T11:27:34.894Z,44.40
2017-05-24T11:30:03.827Z,42.50
2017-05-24T11:32:32.814Z,41.60
2017-05-24T11:35:01.731Z,41.80
2017-05-24T11:37:30.661Z,41.80
2017-05-24T11:39:59.590Z,41.90
2017-05-24T11:42:28.596Z,41.60
2017-05-24T11:44:57.519Z,41.20
2017-05-24T11:47:26.434Z,39.20
2017-05-24T11:49:55.531Z,39.00
2017-05-24T11:52:24.497Z,39.10
2017-05-24T11:54:53.417Z,40.10
2017-05-24T11:57:23.102Z,40.50
2017-05-24T11:59:52.036Z,40.90
2017-05-24T12:02:20.947Z,41.10
2017-05-24T12:04:49.895Z,42.60
2017-05-24T12:07:18.839Z,43.20
2017-05-24T12:09:47.752Z,42.90
2017-05-24T12:12:16.668Z,43.20
2017-05-24T12:14:45.604Z,43.00
2017-05-24T12:17:14.731Z,43.70
2017-05-24T12:19:43.642Z,44.20
2017-05-24T12:22:12.559Z,44.00
2017-05-24T12:24:41.504Z,44.20
2017-05-24T12:27:10.426Z,42.80
2017-05-24T12:29:39.392Z,43.80
2017-05-24T12:32:08.328Z,43.10
2017-05-24T12:34:37.906Z,43.60
2017-05-24T12:37:06.878Z,43.80
2017-05-24T12:39:35.790Z,44.10
2017-05-24T12:42:04.737Z,43.60
2017-05-24T12:44:33.662Z,44.50
2017-05-24T12:47:02.610Z,46.00
2017-05-24T12:49:31.651Z,45.60
2017-05-24T12:52:00.567Z,45.90
2017-05-24T12:54:29.503Z,46.00
2017-05-24T12:56:58.528Z,46.00
2017-05-24T12:59:27.437Z,45.90
2017-05-24T13:01:56.525Z,44.90
2017-05-24T13:04:25.427Z,43.30
2017-05-24T13:06:54.354Z,41.30
2017-05-24T13:09:23.296Z,38.90
2017-05-24T13:11:52.246Z,38.30
2017-05-24T13:14:21.180Z,39.20
2017-05-24T13:16:50.167Z,39.10
2017-05-24T13:19:19.096Z,38.40
2017-05-24T13:21:48.007Z,37.80
2017-05-24T13:24:16.965Z,38.50
2017-05-24T13:26:46.034Z,39.70
2017-05-24T13:29:15.718Z,39.80
2017-05-24T13:31:44.644Z,40.20
2017-05-24T13:34:13.587Z,39.70
2017-05-24T13:36:42.507Z,40.30
2017-05-24T13:39:11.427Z,41.00
2017-05-24T13:41:40.530Z,41.90
2017-05-24T13:44:09.440Z,42.80
2017-05-24T13:46:38.367Z,43.10
2017-05-24T13:49:07.284Z,43.50
2017-05-24T13:51:36.241Z,44.20
2017-05-24T13:54:05.168Z,44.40
2017-05-24T13:56:34.088Z,43.80
2017-05-24T13:59:03.020Z,43.70
2017-05-24T14:01:31.966Z,44.30
2017-05-24T14:04:00.886Z,44.90
2017-05-24T14:06:29.838Z,45.70
2017-05-24T14:08:58.806Z,46.10
2017-05-24T14:11:27.716Z,46.30
2017-05-24T14:13:56.696Z,46.00
2017-05-24T14:16:25.659Z,45.20
2017-05-24T14:18:54.591Z,45.20
2017-05-24T14:21:23.527Z,44.90
2017-05-24T14:23:52.434Z,44.90
2017-05-24T14:26:21.387Z,44.20
2017-05-24T14:28:50.326Z,43.60
2017-05-24T14:31:19.270Z,43.90
2017-05-24T14:33:48.227Z,44.00
2017-05-24T14:36:17.189Z,43.70
2017-05-24T14:38:46.115Z,43.00
2017-05-24T14:41:15.049Z,42.30
2017-05-24T14:43:44.003Z,42.10
2017-05-24T14:46:13.126Z,43.00
2017-05-24T14:48:42.079Z,42.70
2017-05-24T14:51:11.000Z,43.90
2017-05-24T14:53:39.972Z,44.80
2017-05-24T14:56:08.932Z,44.80
2017-05-24T14:58:37.953Z,44.70
2017-05-24T15:01:06.878Z,43.50
2017-05-24T15:03:35.824Z,42.70
2017-05-24T15:06:04.891Z,42.20
2017-05-24T15:08:33.878Z,42.40
2017-05-24T15:11:02.815Z,42.60
2017-05-24T15:13:31.755Z,42.60
2017-05-24T15:16:00.723Z,41.90
2017-05-24T15:18:29.663Z,43.10
2017-05-24T15:20:58.587Z,42.80
2017-05-24T15:23:27.625Z,43.50
2017-05-24T15:25:56.583Z,44.00
2017-05-24T15:28:25.537Z,44.40
2017-05-24T15:30:54.495Z,44.10
2017-05-24T15:33:23.411Z,44.60
2017-05-24T15:35:52.373Z,44.30
2017-05-24T15:38:21.305Z,44.60
2017-05-24T15:40:50.239Z,43.80
2017-05-24T15:43:19.197Z,44.60
2017-05-24T15:45:48.138Z,45.00
2017-05-24T15:48:17.058Z,45.10
2017-05-24T15:50:46.241Z,45.20
2017-05-24T15:53:15.167Z,45.60
2017-05-24T15:55:44.612Z,45.00
2017-05-24T15:58:13.564Z,45.40
2017-05-24T16:00:42.523Z,44.80
2017-05-24T16:03:12.037Z,44.50
2017-05-24T16:05:40.994Z,44.40
2017-05-24T16:08:10.000Z,44.40
2017-05-24T16:10:38.931Z,44.30
2017-05-24T16:13:07.881Z,44.30
2017-05-24T16:15:36.931Z,44.60
2017-05-24T16:18:05.849Z,44.00
2017-05-24T16:33:34.825Z,44.30
2017-05-24T16:36:04.008Z,44.40
2017-05-24T16:38:32.955Z,44.40
2017-05-24T16:41:01.890Z,43.80
2017-05-24T16:43:30.845Z,44.20
2017-05-24T16:45:59.778Z,43.60
2017-05-24T16:48:28.751Z,43.40
2017-05-24T16:50:57.695Z,43.30
2017-05-24T16:53:26.648Z,43.20
2017-05-24T16:55:55.607Z,43.50
2017-05-24T16:58:24.520Z,43.80
2017-05-24T17:00:53.477Z,44.10
2017-05-24T17:03:22.419Z,44.20
2017-05-24T17:05:51.332Z,44.10
2017-05-24T17:08:20.278Z,45.40
2017-05-24T17:10:49.186Z,44.40
2017-05-24T17:13:18.126Z,44.60
2017-05-24T17:15:47.137Z,45.10
2017-05-24T17:18:16.106Z,46.00
2017-05-24T17:20:45.038Z,46.10
2017-05-24T17:23:13.995Z,45.90
2017-05-24T17:25:42.911Z,46.30
2017-05-24T17:28:11.825Z,46.70
2017-05-24T17:30:40.778Z,46.20
2017-05-24T17:33:09.796Z,46.30
2017-05-24T17:35:38.718Z,46.60
2017-05-24T17:38:07.714Z,46.60
2017-05-24T17:40:36.621Z,46.80
2017-05-24T17:43:05.552Z,47.10
2017-05-24T17:45:34.683Z,47.70
2017-05-24T17:48:03.693Z,47.80
2017-05-24T17:50:32.641Z,47.60
2017-05-24T17:53:01.568Z,48.10
2017-05-24T17:55:30.568Z,48.00
2017-05-24T17:57:59.553Z,48.40
2017-05-24T18:00:28.454Z,48.40
2017-05-24T18:02:57.417Z,48.50
2017-05-24T18:05:26.454Z,48.50
2017-05-24T18:07:55.379Z,48.50
2017-05-24T18:10:24.306Z,48.60
2017-05-24T18:12:53.243Z,48.50
2017-05-24T18:15:22.190Z,48.80
2017-05-24T18:17:51.102Z,49.50
2017-05-24T18:20:20.109Z,49.00
2017-05-24T18:22:49.736Z,49.00
2017-05-24T18:25:18.633Z,48.80
2017-05-24T18:27:47.566Z,48.70
2017-05-24T18:30:16.545Z,49.00
2017-05-24T18:32:45.710Z,48.80
2017-05-24T18:35:14.637Z,49.40
2017-05-24T18:37:43.591Z,49.30
2017-05-24T18:40:12.495Z,49.50
2017-05-24T18:42:41.415Z,49.40
2017-05-24T18:45:10.353Z,49.50
2017-05-24T18:47:39.328Z,49.60
2017-05-24T18:50:08.395Z,49.40
2017-05-24T18:52:37.342Z,49.40
2017-05-24T18:55:06.288Z,49.30
2017-05-24T18:57:35.239Z,49.20
2017-05-24T19:00:04.178Z,49.10
2017-05-24T19:02:33.111Z,49.30
2017-05-24T19:05:02.047Z,49.10
2017-05-24T19:07:30.966Z,49.20
2017-05-24T19:09:59.934Z,49.10
2017-05-24T19:12:28.849Z,49.80
2017-05-24T19:14:57.847Z,49.30
2017-05-24T19:17:26.774Z,49.50
2017-05-24T19:19:55.703Z,49.70
2017-05-24T19:22:24.642Z,49.80
2017-05-24T19:24:53.620Z,50.00
2017-05-24T19:27:28.179Z,50.00
2017-05-24T19:29:57.139Z,50.80
2017-05-24T19:32:26.088Z,50.20
2017-05-24T19:34:55.031Z,50.50
2017-05-24T19:37:24.026Z,50.50
2017-05-24T19:39:52.966Z,50.70
2017-05-24T19:42:21.925Z,50.60
2017-05-24T19:44:50.895Z,50.80
2017-05-24T19:47:19.836Z,50.80
2017-05-24T19:49:48.790Z,51.30
2017-05-24T19:52:17.731Z,51.30
2017-05-24T19:54:46.711Z,51.10
2017-05-24T19:57:15.639Z,50.90
2017-05-24T19:59:44.675Z,51.10
2017-05-24T20:02:13.619Z,50.90
2017-05-24T20:04:42.550Z,50.80
2017-05-24T20:07:11.465Z,51.00
2017-05-24T20:09:40.419Z,50.90
2017-05-24T20:12:10.125Z,50.80
2017-05-24T20:14:38.999Z,50.50
2017-05-24T20:17:07.978Z,50.10
2017-05-24T20:19:36.874Z,50.20
2017-05-24T20:22:05.790Z,50.70
2017-05-24T20:24:34.759Z,50.50
2017-05-24T20:27:03.795Z,50.50
2017-05-24T20:29:32.720Z,50.40
2017-05-24T20:32:01.619Z,50.60
2017-05-24T20:34:30.582Z,50.50
2017-05-24T20:36:59.519Z,50.70
2017-05-24T20:39:28.840Z,51.10
2017-05-24T20:41:57.763Z,51.10
2017-05-24T20:44:26.726Z,51.20
2017-05-24T20:46:55.665Z,51.30
2017-05-24T20:49:24.591Z,51.00
2017-05-24T20:51:53.548Z,51.10
2017-05-24T20:54:22.483Z,51.20
2017-05-24T20:56:51.397Z,51.30
2017-05-24T20:59:20.367Z,51.10
2017-05-24T21:01:49.366Z,50.90
2017-05-24T21:04:18.287Z,50.90
2017-05-24T21:06:47.265Z,51.50
2017-05-24T21:09:16.183Z,51.80
2017-05-24T21:11:45.185Z,52.10
2017-05-24T21:14:14.124Z,52.10
2017-05-24T21:16:43.061Z,52.20
2017-05-24T21:19:11.992Z,52.20
2017-05-24T21:21:40.922Z,52.80
2017-05-24T21:24:10.139Z,52.90
2017-05-24T21:26:39.080Z,53.10
2017-05-24T21:29:08.034Z,53.40
2017-05-24T21:31:36.943Z,53.50
2017-05-24T21:34:05.931Z,53.40
2017-05-24T21:36:34.878Z,53.80
2017-05-24T21:39:04.388Z,54.00
2017-05-24T21:41:33.362Z,54.00
2017-05-24T21:44:02.277Z,54.10
2017-05-24T21:46:31.156Z,54.00
2017-05-24T21:49:00.237Z,54.30
2017-05-24T21:51:29.230Z,54.30
2017-05-24T21:53:58.187Z,54.50
2017-05-24T21:56:27.198Z,54.70
2017-05-24T21:58:56.128Z,54.70
2017-05-24T22:01:25.075Z,54.50
2017-05-24T22:03:54.007Z,55.40
2017-05-24T22:06:22.938Z,54.70
2017-05-24T22:08:51.855Z,54.50
2017-05-24T22:11:20.808Z,55.10
2017-05-24T22:13:49.805Z,54.90
2017-05-24T22:16:18.714Z,54.70
2017-05-24T22:18:47.730Z,54.90
2017-05-24T22:21:16.650Z,55.40
2017-05-24T22:23:45.575Z,55.40
2017-05-24T22:26:14.514Z,55.20
2017-05-24T22:28:43.474Z,55.30
2017-05-24T22:31:12.461Z,55.50
2017-05-24T22:33:41.442Z,55.60
2017-05-24T22:36:10.374Z,55.40
2017-05-24T22:38:39.289Z,55.20
2017-05-24T22:41:08.413Z,55.10
2017-05-24T22:43:37.314Z,54.80
2017-05-24T22:46:06.244Z,54.80
2017-05-24T22:48:35.175Z,54.50
2017-05-24T22:51:04.116Z,54.40
2017-05-24T22:53:33.039Z,54.60
2017-05-24T22:56:02.006Z,54.80
2017-05-24T22:58:30.957Z,55.10
2017-05-24T23:00:59.890Z,55.40
2017-05-24T23:03:28.832Z,55.40
2017-05-24T23:05:57.793Z,55.50
2017-05-24T23:08:26.756Z,55.30
2017-05-24T23:10:55.667Z,55.20
2017-05-24T23:13:24.649Z,55.20
2017-05-24T23:15:53.562Z,55.20
2017-05-24T23:18:22.497Z,55.00
2017-05-24T23:20:51.473Z,55.20
2017-05-24T23:23:20.376Z,55.40
2017-05-24T23:25:49.281Z,55.80
2017-05-24T23:28:18.287Z,55.60
2017-05-24T23:30:47.206Z,55.90
2017-05-24T23:33:16.159Z,56.50
2017-05-24T23:35:45.088Z,56.70
2017-05-24T23:38:14.003Z,56.90
2017-05-24T23:40:42.951Z,56.70
2017-05-24T23:43:11.990Z,56.70
2017-05-24T23:45:40.993Z,56.40
2017-05-24T23:48:10.167Z,56.60
2017-05-24T23:50:39.072Z,56.50
2017-05-24T23:53:08.019Z,56.30
2017-05-24T23:55:36.953Z,56.70
2017-05-24T23:58:05.860Z,57.00
